sensor_id;sensor_type;location;lat;lon;timestamp;P1;durP1;ratioP1;P2;durP2;ratioP2
74415;SDS011;62850;42.428;25.618;2024-03-23T00:54:42;5.90;;;2.28;;
74415;SDS011;62850;42.428;25.618;2024-03-23T00:57:08;5.15;;;2.38;;
74415;SDS011;62850;42.428;25.618;2024-03-23T00:59:33;4.63;;;2.08;;
74415;SDS011;62850;42.428;25.618;2024-03-23T01:01:59;8.30;;;3.67;;
74415;SDS011;62850;42.428;25.618;2024-03-23T01:04:24;9.50;;;3.55;;
74415;SDS011;62850;42.428;25.618;2024-03-23T01:06:50;8.00;;;4.40;;
74415;SDS011;62850;42.428;25.618;2024-03-23T01:09:16;10.23;;;4.60;;
74415;SDS011;62850;42.428;25.618;2024-03-23T01:11:42;8.88;;;4.25;;
74415;SDS011;62850;42.428;25.618;2024-03-23T01:14:07;9.90;;;4.85;;
74415;SDS011;62850;42.428;25.618;2024-03-23T01:16:33;8.57;;;4.07;;
74415;SDS011;62850;42.428;25.618;2024-03-23T01:18:59;9.27;;;4.68;;
74415;SDS011;62850;42.428;25.618;2024-03-23T01:21:25;10.35;;;5.13;;
74415;SDS011;62850;42.428;25.618;2024-03-23T01:23:50;7.90;;;4.57;;
74415;SDS011;62850;42.428;25.618;2024-03-23T01:26:16;7.95;;;4.05;;
74415;SDS011;62850;42.428;25.618;2024-03-23T01:28:41;8.00;;;3.75;;
74415;SDS011;62850;42.428;25.618;2024-03-23T01:31:07;8.48;;;3.67;;
74415;SDS011;62850;42.428;25.618;2024-03-23T01:33:33;5.35;;;2.67;;
74415;SDS011;62850;42.428;25.618;2024-03-23T01:35:59;6.40;;;2.60;;
74415;SDS011;62850;42.428;25.618;2024-03-23T01:38:24;5.80;;;2.67;;
74415;SDS011;62850;42.428;25.618;2024-03-23T01:40:55;5.80;;;2.55;;
74415;SDS011;62850;42.428;25.618;2024-03-23T01:43:22;6.38;;;2.50;;
74415;SDS011;62850;42.428;25.618;2024-03-23T01:45:48;6.00;;;2.50;;
74415;SDS011;62850;42.428;25.618;2024-03-23T01:48:13;7.07;;;2.30;;
74415;SDS011;62850;42.428;25.618;2024-03-23T01:50:39;5.63;;;2.60;;
74415;SDS011;62850;42.428;25.618;2024-03-23T01:53:05;5.65;;;2.65;;
74415;SDS011;62850;42.428;25.618;2024-03-23T01:55:34;5.15;;;2.67;;
74415;SDS011;62850;42.428;25.618;2024-03-23T01:57:59;4.90;;;2.40;;
74415;SDS011;62850;42.428;25.618;2024-03-23T02:00:25;6.15;;;2.70;;
74415;SDS011;62850;42.428;25.618;2024-03-23T02:02:53;5.93;;;2.80;;
74415;SDS011;62850;42.428;25.618;2024-03-23T02:05:19;6.47;;;2.58;;
74415;SDS011;62850;42.428;25.618;2024-03-23T02:07:45;6.65;;;2.60;;
74415;SDS011;62850;42.428;25.618;2024-03-23T02:10:10;6.03;;;2.75;;
74415;SDS011;62850;42.428;25.618;2024-03-23T02:12:40;5.72;;;2.60;;
74415;SDS011;62850;42.428;25.618;2024-03-23T02:15:06;8.60;;;3.85;;
74415;SDS011;62850;42.428;25.618;2024-03-23T02:17:34;6.07;;;3.47;;
74415;SDS011;62850;42.428;25.618;2024-03-23T02:20:00;8.00;;;4.18;;
74415;SDS011;62850;42.428;25.618;2024-03-23T02:22:36;6.95;;;3.50;;
74415;SDS011;62850;42.428;25.618;2024-03-23T02:25:03;8.00;;;3.58;;
74415;SDS011;62850;42.428;25.618;2024-03-23T02:27:30;7.18;;;3.60;;
74415;SDS011;62850;42.428;25.618;2024-03-23T02:29:55;8.27;;;3.00;;
74415;SDS011;62850;42.428;25.618;2024-03-23T02:32:21;6.88;;;2.70;;
74415;SDS011;62850;42.428;25.618;2024-03-23T02:34:46;8.82;;;3.33;;
74415;SDS011;62850;42.428;25.618;2024-03-23T02:37:12;5.82;;;2.80;;
74415;SDS011;62850;42.428;25.618;2024-03-23T02:39:38;6.10;;;2.97;;
74415;SDS011;62850;42.428;25.618;2024-03-23T02:42:04;6.55;;;2.80;;
74415;SDS011;62850;42.428;25.618;2024-03-23T02:44:29;6.95;;;3.30;;
74415;SDS011;62850;42.428;25.618;2024-03-23T02:46:55;5.40;;;2.47;;
74415;SDS011;62850;42.428;25.618;2024-03-23T02:49:21;5.70;;;3.03;;
74415;SDS011;62850;42.428;25.618;2024-03-23T02:51:46;7.25;;;3.00;;
74415;SDS011;62850;42.428;25.618;2024-03-23T02:54:13;9.65;;;3.00;;
74415;SDS011;62850;42.428;25.618;2024-03-23T02:56:39;6.22;;;2.92;;
74415;SDS011;62850;42.428;25.618;2024-03-23T02:59:04;7.45;;;3.20;;
74415;SDS011;62850;42.428;25.618;2024-03-23T03:01:30;7.70;;;3.10;;
74415;SDS011;62850;42.428;25.618;2024-03-23T03:03:56;6.10;;;2.90;;
74415;SDS011;62850;42.428;25.618;2024-03-23T03:06:27;6.32;;;2.95;;
74415;SDS011;62850;42.428;25.618;2024-03-23T03:08:55;7.30;;;3.13;;
74415;SDS011;62850;42.428;25.618;2024-03-23T03:11:21;7.90;;;3.20;;
74415;SDS011;62850;42.428;25.618;2024-03-23T03:13:47;8.85;;;3.50;;
74415;SDS011;62850;42.428;25.618;2024-03-23T03:16:13;6.82;;;3.30;;
74415;SDS011;62850;42.428;25.618;2024-03-23T03:18:39;7.40;;;4.20;;
74415;SDS011;62850;42.428;25.618;2024-03-23T03:21:05;7.25;;;3.00;;
74415;SDS011;62850;42.428;25.618;2024-03-23T03:23:36;7.15;;;3.15;;
74415;SDS011;62850;42.428;25.618;2024-03-23T03:26:02;6.75;;;2.97;;
74415;SDS011;62850;42.428;25.618;2024-03-23T03:28:28;8.05;;;3.17;;
74415;SDS011;62850;42.428;25.618;2024-03-23T03:30:55;8.30;;;3.47;;
74415;SDS011;62850;42.428;25.618;2024-03-23T03:33:22;8.63;;;3.70;;
74415;SDS011;62850;42.428;25.618;2024-03-23T03:35:47;7.43;;;3.80;;
74415;SDS011;62850;42.428;25.618;2024-03-23T03:38:13;8.18;;;4.07;;
74415;SDS011;62850;42.428;25.618;2024-03-23T03:40:38;7.90;;;3.75;;
74415;SDS011;62850;42.428;25.618;2024-03-23T03:43:04;10.88;;;4.40;;
74415;SDS011;62850;42.428;25.618;2024-03-23T03:45:29;8.95;;;4.13;;
74415;SDS011;62850;42.428;25.618;2024-03-23T03:47:55;8.77;;;4.28;;
74415;SDS011;62850;42.428;25.618;2024-03-23T03:50:21;9.07;;;4.18;;
74415;SDS011;62850;42.428;25.618;2024-03-23T03:52:47;7.55;;;3.55;;
74415;SDS011;62850;42.428;25.618;2024-03-23T03:55:13;7.97;;;3.55;;
74415;SDS011;62850;42.428;25.618;2024-03-23T03:57:40;8.25;;;3.80;;
74415;SDS011;62850;42.428;25.618;2024-03-23T04:00:05;8.63;;;4.53;;
74415;SDS011;62850;42.428;25.618;2024-03-23T04:02:32;12.25;;;4.40;;
74415;SDS011;62850;42.428;25.618;2024-03-23T04:04:57;8.32;;;4.05;;
74415;SDS011;62850;42.428;25.618;2024-03-23T04:07:23;9.52;;;4.18;;
74415;SDS011;62850;42.428;25.618;2024-03-23T04:09:49;9.75;;;4.20;;
74415;SDS011;62850;42.428;25.618;2024-03-23T04:12:14;9.45;;;3.90;;
74415;SDS011;62850;42.428;25.618;2024-03-23T04:14:40;9.35;;;4.45;;
74415;SDS011;62850;42.428;25.618;2024-03-23T04:17:07;7.97;;;3.67;;
74415;SDS011;62850;42.428;25.618;2024-03-23T04:19:32;7.43;;;3.10;;
74415;SDS011;62850;42.428;25.618;2024-03-23T04:21:58;7.82;;;3.38;;
74415;SDS011;62850;42.428;25.618;2024-03-23T04:24:24;6.22;;;2.97;;
74415;SDS011;62850;42.428;25.618;2024-03-23T04:26:51;8.27;;;3.67;;
74415;SDS011;62850;42.428;25.618;2024-03-23T04:29:17;7.28;;;3.33;;
74415;SDS011;62850;42.428;25.618;2024-03-23T04:31:43;8.10;;;3.53;;
74415;SDS011;62850;42.428;25.618;2024-03-23T04:34:08;10.15;;;3.78;;
74415;SDS011;62850;42.428;25.618;2024-03-23T04:36:34;8.38;;;3.40;;
74415;SDS011;62850;42.428;25.618;2024-03-23T04:39:00;8.05;;;3.40;;
74415;SDS011;62850;42.428;25.618;2024-03-23T04:41:26;7.10;;;3.42;;
74415;SDS011;62850;42.428;25.618;2024-03-23T04:43:52;8.80;;;3.92;;
74415;SDS011;62850;42.428;25.618;2024-03-23T04:46:19;7.25;;;3.13;;
74415;SDS011;62850;42.428;25.618;2024-03-23T04:48:45;6.70;;;3.15;;
74415;SDS011;62850;42.428;25.618;2024-03-23T04:51:11;8.48;;;3.60;;
74415;SDS011;62850;42.428;25.618;2024-03-23T04:53:46;9.15;;;3.85;;
74415;SDS011;62850;42.428;25.618;2024-03-23T04:56:13;9.85;;;3.75;;
74415;SDS011;62850;42.428;25.618;2024-03-23T04:58:39;10.20;;;4.03;;
74415;SDS011;62850;42.428;25.618;2024-03-23T05:01:05;8.35;;;3.80;;
74415;SDS011;62850;42.428;25.618;2024-03-23T05:03:30;14.32;;;4.03;;
74415;SDS011;62850;42.428;25.618;2024-03-23T05:05:56;13.63;;;4.47;;
74415;SDS011;62850;42.428;25.618;2024-03-23T05:08:23;9.38;;;4.32;;
74415;SDS011;62850;42.428;25.618;2024-03-23T05:10:49;9.45;;;5.05;;
74415;SDS011;62850;42.428;25.618;2024-03-23T05:13:14;12.35;;;5.05;;
74415;SDS011;62850;42.428;25.618;2024-03-23T05:15:40;9.38;;;4.93;;
74415;SDS011;62850;42.428;25.618;2024-03-23T05:18:06;12.55;;;5.10;;
74415;SDS011;62850;42.428;25.618;2024-03-23T05:20:32;13.80;;;5.25;;
74415;SDS011;62850;42.428;25.618;2024-03-23T05:22:57;13.77;;;4.70;;
74415;SDS011;62850;42.428;25.618;2024-03-23T05:25:23;10.98;;;4.43;;
74415;SDS011;62850;42.428;25.618;2024-03-23T05:27:48;9.73;;;4.70;;
74415;SDS011;62850;42.428;25.618;2024-03-23T05:30:14;12.05;;;4.97;;
74415;SDS011;62850;42.428;25.618;2024-03-23T05:32:40;9.27;;;4.60;;
74415;SDS011;62850;42.428;25.618;2024-03-23T05:35:07;9.82;;;4.90;;
74415;SDS011;62850;42.428;25.618;2024-03-23T05:37:34;9.18;;;4.40;;
74415;SDS011;62850;42.428;25.618;2024-03-23T05:40:00;9.07;;;4.47;;
74415;SDS011;62850;42.428;25.618;2024-03-23T05:42:25;10.35;;;4.90;;
74415;SDS011;62850;42.428;25.618;2024-03-23T05:44:51;9.57;;;4.72;;
74415;SDS011;62850;42.428;25.618;2024-03-23T05:47:17;9.10;;;4.78;;
74415;SDS011;62850;42.428;25.618;2024-03-23T05:49:42;9.35;;;4.65;;
74415;SDS011;62850;42.428;25.618;2024-03-23T05:52:09;10.30;;;4.55;;
74415;SDS011;62850;42.428;25.618;2024-03-23T05:54:37;10.80;;;4.72;;
74415;SDS011;62850;42.428;25.618;2024-03-23T05:57:03;10.20;;;4.32;;
74415;SDS011;62850;42.428;25.618;2024-03-23T05:59:29;10.15;;;4.03;;
74415;SDS011;62850;42.428;25.618;2024-03-23T06:01:55;9.30;;;4.47;;
74415;SDS011;62850;42.428;25.618;2024-03-23T06:04:21;10.77;;;4.93;;
74415;SDS011;62850;42.428;25.618;2024-03-23T06:06:47;9.88;;;4.80;;
74415;SDS011;62850;42.428;25.618;2024-03-23T06:09:13;11.90;;;4.95;;
74415;SDS011;62850;42.428;25.618;2024-03-23T06:11:39;10.57;;;4.93;;
74415;SDS011;62850;42.428;25.618;2024-03-23T06:14:05;10.48;;;4.85;;
74415;SDS011;62850;42.428;25.618;2024-03-23T06:16:31;10.50;;;5.35;;
74415;SDS011;62850;42.428;25.618;2024-03-23T06:18:56;12.05;;;4.93;;
74415;SDS011;62850;42.428;25.618;2024-03-23T06:21:22;11.70;;;5.18;;
74415;SDS011;62850;42.428;25.618;2024-03-23T06:23:51;10.57;;;5.22;;
74415;SDS011;62850;42.428;25.618;2024-03-23T06:26:20;12.65;;;4.97;;
74415;SDS011;62850;42.428;25.618;2024-03-23T06:28:46;10.32;;;5.43;;
74415;SDS011;62850;42.428;25.618;2024-03-23T06:31:12;16.20;;;6.38;;
74415;SDS011;62850;42.428;25.618;2024-03-23T06:33:38;16.02;;;6.57;;
74415;SDS011;62850;42.428;25.618;2024-03-23T06:36:05;12.15;;;6.50;;
74415;SDS011;62850;42.428;25.618;2024-03-23T06:38:31;12.68;;;6.90;;
74415;SDS011;62850;42.428;25.618;2024-03-23T06:40:57;16.17;;;7.45;;
74415;SDS011;62850;42.428;25.618;2024-03-23T06:43:23;16.85;;;6.70;;
74415;SDS011;62850;42.428;25.618;2024-03-23T06:45:52;17.88;;;7.18;;
74415;SDS011;62850;42.428;25.618;2024-03-23T06:48:18;21.30;;;8.23;;
74415;SDS011;62850;42.428;25.618;2024-03-23T06:50:45;20.92;;;8.45;;
74415;SDS011;62850;42.428;25.618;2024-03-23T06:53:11;19.20;;;7.43;;
74415;SDS011;62850;42.428;25.618;2024-03-23T06:55:37;22.30;;;7.95;;
74415;SDS011;62850;42.428;25.618;2024-03-23T06:58:03;21.60;;;8.27;;
74415;SDS011;62850;42.428;25.618;2024-03-23T07:00:29;20.00;;;7.82;;
74415;SDS011;62850;42.428;25.618;2024-03-23T07:02:55;17.50;;;6.85;;
74415;SDS011;62850;42.428;25.618;2024-03-23T07:05:21;16.55;;;7.10;;
74415;SDS011;62850;42.428;25.618;2024-03-23T07:07:46;73.78;;;23.67;;
74415;SDS011;62850;42.428;25.618;2024-03-23T07:10:12;54.47;;;17.85;;
74415;SDS011;62850;42.428;25.618;2024-03-23T07:12:38;67.07;;;19.88;;
74415;SDS011;62850;42.428;25.618;2024-03-23T07:15:03;50.92;;;14.70;;
74415;SDS011;62850;42.428;25.618;2024-03-23T07:17:29;26.80;;;10.02;;
74415;SDS011;62850;42.428;25.618;2024-03-23T07:19:55;16.17;;;7.38;;
74415;SDS011;62850;42.428;25.618;2024-03-23T07:22:21;20.17;;;6.97;;
74415;SDS011;62850;42.428;25.618;2024-03-23T07:24:46;16.00;;;6.15;;
74415;SDS011;62850;42.428;25.618;2024-03-23T07:27:12;10.30;;;5.53;;
74415;SDS011;62850;42.428;25.618;2024-03-23T07:29:38;11.48;;;5.65;;
74415;SDS011;62850;42.428;25.618;2024-03-23T07:32:03;11.52;;;5.95;;
74415;SDS011;62850;42.428;25.618;2024-03-23T07:34:29;9.98;;;5.75;;
74415;SDS011;62850;42.428;25.618;2024-03-23T07:36:54;11.68;;;5.43;;
74415;SDS011;62850;42.428;25.618;2024-03-23T07:39:20;10.60;;;5.43;;
74415;SDS011;62850;42.428;25.618;2024-03-23T07:41:46;12.07;;;6.03;;
74415;SDS011;62850;42.428;25.618;2024-03-23T07:44:11;10.38;;;5.10;;
74415;SDS011;62850;42.428;25.618;2024-03-23T07:46:37;12.15;;;5.70;;
74415;SDS011;62850;42.428;25.618;2024-03-23T07:49:06;12.43;;;5.70;;
74415;SDS011;62850;42.428;25.618;2024-03-23T07:51:32;11.15;;;5.53;;
74415;SDS011;62850;42.428;25.618;2024-03-23T07:53:58;11.07;;;5.68;;
74415;SDS011;62850;42.428;25.618;2024-03-23T07:56:24;13.57;;;6.32;;
74415;SDS011;62850;42.428;25.618;2024-03-23T07:58:50;11.15;;;5.18;;
74415;SDS011;62850;42.428;25.618;2024-03-23T08:01:16;11.70;;;5.80;;
74415;SDS011;62850;42.428;25.618;2024-03-23T08:03:43;10.13;;;5.18;;
74415;SDS011;62850;42.428;25.618;2024-03-23T08:08:40;12.52;;;4.95;;
74415;SDS011;62850;42.428;25.618;2024-03-23T08:11:06;9.85;;;4.57;;
74415;SDS011;62850;42.428;25.618;2024-03-23T08:13:32;9.25;;;4.55;;
74415;SDS011;62850;42.428;25.618;2024-03-23T08:15:59;13.32;;;5.35;;
74415;SDS011;62850;42.428;25.618;2024-03-23T08:18:25;11.93;;;5.60;;
74415;SDS011;62850;42.428;25.618;2024-03-23T08:21:01;9.85;;;4.70;;
74415;SDS011;62850;42.428;25.618;2024-03-23T08:23:28;9.55;;;4.93;;
74415;SDS011;62850;42.428;25.618;2024-03-23T08:25:58;9.00;;;4.38;;
74415;SDS011;62850;42.428;25.618;2024-03-23T08:28:27;9.95;;;5.22;;
74415;SDS011;62850;42.428;25.618;2024-03-23T08:30:53;13.05;;;5.28;;
74415;SDS011;62850;42.428;25.618;2024-03-23T08:33:20;11.13;;;4.80;;
74415;SDS011;62850;42.428;25.618;2024-03-23T08:35:53;10.48;;;4.60;;
74415;SDS011;62850;42.428;25.618;2024-03-23T08:38:19;11.75;;;4.93;;
74415;SDS011;62850;42.428;25.618;2024-03-23T08:40:44;11.65;;;6.88;;
74415;SDS011;62850;42.428;25.618;2024-03-23T08:43:10;10.48;;;5.70;;
74415;SDS011;62850;42.428;25.618;2024-03-23T08:45:35;9.65;;;5.10;;
74415;SDS011;62850;42.428;25.618;2024-03-23T08:48:01;8.45;;;4.85;;
74415;SDS011;62850;42.428;25.618;2024-03-23T08:50:27;10.95;;;5.28;;
74415;SDS011;62850;42.428;25.618;2024-03-23T08:52:52;9.82;;;4.95;;
74415;SDS011;62850;42.428;25.618;2024-03-23T08:55:18;10.57;;;5.53;;
74415;SDS011;62850;42.428;25.618;2024-03-23T08:57:45;9.82;;;5.60;;
74415;SDS011;62850;42.428;25.618;2024-03-23T09:00:11;9.95;;;5.35;;
74415;SDS011;62850;42.428;25.618;2024-03-23T09:02:37;9.45;;;5.82;;
74415;SDS011;62850;42.428;25.618;2024-03-23T09:05:03;10.65;;;5.05;;
74415;SDS011;62850;42.428;25.618;2024-03-23T09:07:30;10.00;;;5.15;;
74415;SDS011;62850;42.428;25.618;2024-03-23T09:09:56;8.65;;;5.18;;
74415;SDS011;62850;42.428;25.618;2024-03-23T09:12:22;10.55;;;4.97;;
74415;SDS011;62850;42.428;25.618;2024-03-23T09:14:47;8.48;;;4.75;;
74415;SDS011;62850;42.428;25.618;2024-03-23T09:17:12;9.48;;;5.20;;
74415;SDS011;62850;42.428;25.618;2024-03-23T09:19:38;8.55;;;4.05;;
74415;SDS011;62850;42.428;25.618;2024-03-23T09:22:05;8.98;;;4.15;;
74415;SDS011;62850;42.428;25.618;2024-03-23T09:24:30;11.48;;;4.93;;
74415;SDS011;62850;42.428;25.618;2024-03-23T09:26:57;8.27;;;3.88;;
74415;SDS011;62850;42.428;25.618;2024-03-23T09:29:23;8.40;;;4.28;;
74415;SDS011;62850;42.428;25.618;2024-03-23T09:31:48;7.88;;;4.07;;
74415;SDS011;62850;42.428;25.618;2024-03-23T09:34:14;10.40;;;4.50;;
74415;SDS011;62850;42.428;25.618;2024-03-23T09:36:40;7.95;;;4.35;;
74415;SDS011;62850;42.428;25.618;2024-03-23T09:39:06;8.98;;;4.00;;
74415;SDS011;62850;42.428;25.618;2024-03-23T09:41:34;8.68;;;4.20;;
74415;SDS011;62850;42.428;25.618;2024-03-23T09:44:00;8.40;;;4.00;;
74415;SDS011;62850;42.428;25.618;2024-03-23T09:46:26;6.90;;;3.88;;
74415;SDS011;62850;42.428;25.618;2024-03-23T09:48:53;6.25;;;3.45;;
74415;SDS011;62850;42.428;25.618;2024-03-23T09:51:21;8.07;;;3.50;;
74415;SDS011;62850;42.428;25.618;2024-03-23T09:53:47;7.30;;;3.72;;
74415;SDS011;62850;42.428;25.618;2024-03-23T09:56:15;6.35;;;3.42;;
74415;SDS011;62850;42.428;25.618;2024-03-23T09:58:42;7.40;;;3.35;;
74415;SDS011;62850;42.428;25.618;2024-03-23T10:01:08;7.07;;;2.85;;
74415;SDS011;62850;42.428;25.618;2024-03-23T10:03:46;6.13;;;3.50;;
74415;SDS011;62850;42.428;25.618;2024-03-23T10:06:12;7.53;;;3.22;;
74415;SDS011;62850;42.428;25.618;2024-03-23T10:08:38;10.38;;;3.72;;
74415;SDS011;62850;42.428;25.618;2024-03-23T10:11:13;5.18;;;2.85;;
74415;SDS011;62850;42.428;25.618;2024-03-23T10:13:44;5.25;;;2.97;;
74415;SDS011;62850;42.428;25.618;2024-03-23T10:16:20;5.70;;;2.70;;
74415;SDS011;62850;42.428;25.618;2024-03-23T10:18:48;9.60;;;3.53;;
74415;SDS011;62850;42.428;25.618;2024-03-23T10:21:14;10.35;;;5.10;;
74415;SDS011;62850;42.428;25.618;2024-03-23T10:23:41;5.95;;;2.80;;
74415;SDS011;62850;42.428;25.618;2024-03-23T10:26:16;7.35;;;3.28;;
74415;SDS011;62850;42.428;25.618;2024-03-23T10:28:58;7.72;;;3.33;;
74415;SDS011;62850;42.428;25.618;2024-03-23T10:31:33;5.65;;;2.75;;
74415;SDS011;62850;42.428;25.618;2024-03-23T10:34:00;6.45;;;2.60;;
74415;SDS011;62850;42.428;25.618;2024-03-23T10:36:26;4.63;;;2.38;;
74415;SDS011;62850;42.428;25.618;2024-03-23T10:38:54;5.60;;;2.85;;
74415;SDS011;62850;42.428;25.618;2024-03-23T10:41:20;6.05;;;2.45;;
74415;SDS011;62850;42.428;25.618;2024-03-23T10:43:46;4.03;;;2.10;;
74415;SDS011;62850;42.428;25.618;2024-03-23T10:46:13;4.38;;;2.20;;
74415;SDS011;62850;42.428;25.618;2024-03-23T10:48:39;4.85;;;2.30;;
74415;SDS011;62850;42.428;25.618;2024-03-23T10:51:06;4.82;;;2.38;;
74415;SDS011;62850;42.428;25.618;2024-03-23T10:53:34;4.57;;;2.30;;
74415;SDS011;62850;42.428;25.618;2024-03-23T10:56:00;7.03;;;2.42;;
74415;SDS011;62850;42.428;25.618;2024-03-23T10:58:30;6.50;;;2.63;;
74415;SDS011;62850;42.428;25.618;2024-03-23T11:00:57;5.10;;;2.60;;
74415;SDS011;62850;42.428;25.618;2024-03-23T11:03:36;4.40;;;2.30;;
74415;SDS011;62850;42.428;25.618;2024-03-23T11:06:05;5.93;;;2.60;;
74415;SDS011;62850;42.428;25.618;2024-03-23T11:11:18;7.40;;;2.53;;
74415;SDS011;62850;42.428;25.618;2024-03-23T11:18:43;9.70;;;2.65;;
74415;SDS011;62850;42.428;25.618;2024-03-23T11:21:10;4.35;;;2.13;;
74415;SDS011;62850;42.428;25.618;2024-03-23T11:23:36;5.05;;;2.10;;
74415;SDS011;62850;42.428;25.618;2024-03-23T11:26:01;4.75;;;2.38;;
74415;SDS011;62850;42.428;25.618;2024-03-23T11:28:30;4.88;;;2.42;;
74415;SDS011;62850;42.428;25.618;2024-03-23T11:30:55;5.43;;;2.70;;
74415;SDS011;62850;42.428;25.618;2024-03-23T11:33:21;5.10;;;2.50;;
74415;SDS011;62850;42.428;25.618;2024-03-23T11:35:46;6.80;;;1.90;;
74415;SDS011;62850;42.428;25.618;2024-03-23T11:38:13;4.93;;;2.60;;
74415;SDS011;62850;42.428;25.618;2024-03-23T11:43:11;3.90;;;1.95;;
74415;SDS011;62850;42.428;25.618;2024-03-23T11:45:42;3.25;;;1.60;;
74415;SDS011;62850;42.428;25.618;2024-03-23T11:50:45;3.40;;;1.40;;
74415;SDS011;62850;42.428;25.618;2024-03-23T11:58:19;5.03;;;1.70;;
74415;SDS011;62850;42.428;25.618;2024-03-23T12:00:49;3.90;;;1.70;;
74415;SDS011;62850;42.428;25.618;2024-03-23T12:03:22;3.20;;;1.83;;
74415;SDS011;62850;42.428;25.618;2024-03-23T12:05:51;4.05;;;1.80;;
74415;SDS011;62850;42.428;25.618;2024-03-23T12:08:25;4.45;;;1.70;;
74415;SDS011;62850;42.428;25.618;2024-03-23T12:11:06;3.50;;;1.80;;
74415;SDS011;62850;42.428;25.618;2024-03-23T12:13:40;4.30;;;1.77;;
74415;SDS011;62850;42.428;25.618;2024-03-23T12:16:09;3.70;;;1.60;;
74415;SDS011;62850;42.428;25.618;2024-03-23T12:18:42;3.60;;;1.80;;
74415;SDS011;62850;42.428;25.618;2024-03-23T12:21:08;5.43;;;2.15;;
74415;SDS011;62850;42.428;25.618;2024-03-23T12:23:34;4.65;;;1.90;;
74415;SDS011;62850;42.428;25.618;2024-03-23T12:26:00;4.35;;;2.22;;
74415;SDS011;62850;42.428;25.618;2024-03-23T12:28:26;4.47;;;2.25;;
74415;SDS011;62850;42.428;25.618;2024-03-23T12:30:52;4.18;;;2.10;;
74415;SDS011;62850;42.428;25.618;2024-03-23T12:33:19;4.72;;;2.15;;
74415;SDS011;62850;42.428;25.618;2024-03-23T12:35:44;5.35;;;2.00;;
74415;SDS011;62850;42.428;25.618;2024-03-23T12:38:10;3.53;;;1.80;;
74415;SDS011;62850;42.428;25.618;2024-03-23T12:40:35;6.65;;;1.98;;
74415;SDS011;62850;42.428;25.618;2024-03-23T12:43:01;4.00;;;1.80;;
74415;SDS011;62850;42.428;25.618;2024-03-23T12:45:26;4.85;;;2.17;;
74415;SDS011;62850;42.428;25.618;2024-03-23T12:47:52;4.10;;;1.90;;
74415;SDS011;62850;42.428;25.618;2024-03-23T12:50:20;4.00;;;2.20;;
74415;SDS011;62850;42.428;25.618;2024-03-23T12:52:46;3.85;;;1.80;;
74415;SDS011;62850;42.428;25.618;2024-03-23T12:55:12;5.05;;;2.35;;
74415;SDS011;62850;42.428;25.618;2024-03-23T12:57:37;4.20;;;2.33;;
74415;SDS011;62850;42.428;25.618;2024-03-23T13:00:03;8.68;;;6.07;;
74415;SDS011;62850;42.428;25.618;2024-03-23T13:02:29;10.25;;;5.05;;
74415;SDS011;62850;42.428;25.618;2024-03-23T13:04:55;5.88;;;2.47;;
74415;SDS011;62850;42.428;25.618;2024-03-23T13:07:21;8.73;;;3.78;;
74415;SDS011;62850;42.428;25.618;2024-03-23T13:09:51;4.43;;;2.25;;
74415;SDS011;62850;42.428;25.618;2024-03-23T13:12:17;6.65;;;3.45;;
74415;SDS011;62850;42.428;25.618;2024-03-23T13:14:46;3.97;;;2.10;;
74415;SDS011;62850;42.428;25.618;2024-03-23T13:17:12;4.05;;;1.73;;
74415;SDS011;62850;42.428;25.618;2024-03-23T13:19:38;4.97;;;1.90;;
74415;SDS011;62850;42.428;25.618;2024-03-23T13:22:03;5.40;;;2.40;;
74415;SDS011;62850;42.428;25.618;2024-03-23T13:24:29;4.90;;;2.25;;
74415;SDS011;62850;42.428;25.618;2024-03-23T13:26:56;3.42;;;1.70;;
74415;SDS011;62850;42.428;25.618;2024-03-23T13:29:22;6.47;;;2.72;;
74415;SDS011;62850;42.428;25.618;2024-03-23T13:31:49;4.95;;;2.25;;
74415;SDS011;62850;42.428;25.618;2024-03-23T13:34:15;7.05;;;3.65;;
74415;SDS011;62850;42.428;25.618;2024-03-23T13:36:44;4.20;;;1.80;;
74415;SDS011;62850;42.428;25.618;2024-03-23T13:39:10;3.80;;;1.75;;
74415;SDS011;62850;42.428;25.618;2024-03-23T13:41:37;4.43;;;2.22;;
74415;SDS011;62850;42.428;25.618;2024-03-23T13:44:04;5.28;;;2.05;;
74415;SDS011;62850;42.428;25.618;2024-03-23T13:46:33;4.45;;;1.80;;
74415;SDS011;62850;42.428;25.618;2024-03-23T13:48:59;4.15;;;1.90;;
74415;SDS011;62850;42.428;25.618;2024-03-23T13:51:25;4.78;;;2.15;;
74415;SDS011;62850;42.428;25.618;2024-03-23T13:53:52;4.20;;;2.00;;
74415;SDS011;62850;42.428;25.618;2024-03-23T13:56:19;6.68;;;1.80;;
74415;SDS011;62850;42.428;25.618;2024-03-23T13:58:45;4.65;;;2.03;;
74415;SDS011;62850;42.428;25.618;2024-03-23T14:01:12;4.13;;;1.90;;
74415;SDS011;62850;42.428;25.618;2024-03-23T14:03:38;4.70;;;2.20;;
74415;SDS011;62850;42.428;25.618;2024-03-23T14:06:04;5.53;;;2.38;;
74415;SDS011;62850;42.428;25.618;2024-03-23T14:08:32;5.32;;;2.00;;
74415;SDS011;62850;42.428;25.618;2024-03-23T14:11:00;4.60;;;2.13;;
74415;SDS011;62850;42.428;25.618;2024-03-23T14:13:27;4.60;;;1.95;;
74415;SDS011;62850;42.428;25.618;2024-03-23T14:15:56;5.28;;;2.00;;
74415;SDS011;62850;42.428;25.618;2024-03-23T14:18:22;4.45;;;1.73;;
74415;SDS011;62850;42.428;25.618;2024-03-23T14:20:48;3.20;;;1.52;;
74415;SDS011;62850;42.428;25.618;2024-03-23T14:23:14;4.90;;;1.92;;
74415;SDS011;62850;42.428;25.618;2024-03-23T14:25:41;4.82;;;1.90;;
74415;SDS011;62850;42.428;25.618;2024-03-23T14:28:06;3.50;;;1.50;;
74415;SDS011;62850;42.428;25.618;2024-03-23T14:30:39;3.58;;;1.80;;
74415;SDS011;62850;42.428;25.618;2024-03-23T14:33:05;4.40;;;1.58;;
74415;SDS011;62850;42.428;25.618;2024-03-23T14:35:31;3.63;;;1.55;;
74415;SDS011;62850;42.428;25.618;2024-03-23T14:37:58;4.22;;;1.70;;
74415;SDS011;62850;42.428;25.618;2024-03-23T14:40:24;3.90;;;1.95;;
74415;SDS011;62850;42.428;25.618;2024-03-23T14:42:53;3.95;;;1.85;;
74415;SDS011;62850;42.428;25.618;2024-03-23T14:45:22;3.22;;;1.50;;
74415;SDS011;62850;42.428;25.618;2024-03-23T14:47:49;3.88;;;1.60;;
74415;SDS011;62850;42.428;25.618;2024-03-23T14:50:15;5.82;;;1.75;;
74415;SDS011;62850;42.428;25.618;2024-03-23T14:52:45;4.85;;;1.70;;
74415;SDS011;62850;42.428;25.618;2024-03-23T14:55:11;3.70;;;1.40;;
74415;SDS011;62850;42.428;25.618;2024-03-23T14:57:37;3.80;;;1.80;;
74415;SDS011;62850;42.428;25.618;2024-03-23T15:00:07;4.63;;;1.88;;
74415;SDS011;62850;42.428;25.618;2024-03-23T15:02:35;4.80;;;1.63;;
74415;SDS011;62850;42.428;25.618;2024-03-23T15:05:01;5.18;;;1.80;;
74415;SDS011;62850;42.428;25.618;2024-03-23T15:07:29;4.20;;;1.80;;
74415;SDS011;62850;42.428;25.618;2024-03-23T15:09:55;4.32;;;2.05;;
74415;SDS011;62850;42.428;25.618;2024-03-23T15:12:21;5.13;;;2.08;;
74415;SDS011;62850;42.428;25.618;2024-03-23T15:14:47;7.20;;;1.90;;
74415;SDS011;62850;42.428;25.618;2024-03-23T15:17:13;5.75;;;1.90;;
74415;SDS011;62850;42.428;25.618;2024-03-23T15:19:39;4.10;;;2.08;;
74415;SDS011;62850;42.428;25.618;2024-03-23T15:22:05;4.30;;;2.00;;
74415;SDS011;62850;42.428;25.618;2024-03-23T15:24:30;5.55;;;1.95;;
74415;SDS011;62850;42.428;25.618;2024-03-23T15:26:57;4.05;;;2.20;;
74415;SDS011;62850;42.428;25.618;2024-03-23T15:29:22;5.50;;;2.30;;
74415;SDS011;62850;42.428;25.618;2024-03-23T15:31:48;5.43;;;1.90;;
74415;SDS011;62850;42.428;25.618;2024-03-23T15:34:17;5.18;;;2.35;;
74415;SDS011;62850;42.428;25.618;2024-03-23T15:36:47;7.32;;;2.80;;
74415;SDS011;62850;42.428;25.618;2024-03-23T15:39:15;7.93;;;3.15;;
74415;SDS011;62850;42.428;25.618;2024-03-23T15:41:44;8.80;;;3.95;;